Time;durP1;ratioP1;P1;durP2;ratioP2;P2;SDS_P1;SDS_P2;PMS_P1;PMS_P2;Temp;Humidity;BMP_temperature;BMP_pressure;BME280_temperature;BME280_humidity;BME280_pressure;Samples;Min_cycle;Max_cycle;Signal;HPM_P1;HPM_P2
2023/05/06 00:02:10;;;;;;;4.63;0.67;;;;;;;;;;8249265;28;20033;-71
2023/05/06 00:06:11;;;;;;;0.75;0.60;;;;;;;;;;8249551;28;20034;-71
2023/05/06 00:10:11;;;;;;;1.40;0.80;;;;;;;;;;8249887;28;20021;-71
2023/05/06 00:14:11;;;;;;;1.13;0.90;;;;;;;;;;8259996;28;20059;-71
2023/05/06 00:18:13;;;;;;;1.70;0.80;;;;;;;;;;8256475;28;20037;-71
2023/05/06 00:22:13;;;;;;;0.70;0.70;;;;;;;;;;8272476;28;20100;-71
2023/05/06 00:26:14;;;;;;;0.80;0.80;;;;;;;;;;8258519;28;20037;-71
2023/05/06 00:30:15;;;;;;;1.00;0.70;;;;;;;;;;8255731;28;20617;-71
2023/05/06 00:34:15;;;;;;;3.22;0.70;;;;;;;;;;8261620;28;20038;-72
2023/05/06 00:38:15;;;;;;;1.15;0.75;;;;;;;;;;8254882;28;20041;-71
2023/05/06 00:42:16;;;;;;;1.70;0.80;;;;;;;;;;8256708;28;20061;-71
2023/05/06 00:46:16;;;;;;;0.82;0.70;;;;;;;;;;8253420;28;20049;-71
2023/05/06 00:50:16;;;;;;;1.13;0.80;;;;;;;;;;8257704;28;20034;-71
2023/05/06 00:54:17;;;;;;;1.48;0.80;;;;;;;;;;8255187;28;20629;-71
2023/05/06 00:58:18;;;;;;;1.35;0.90;;;;;;;;;;8257701;28;20030;-71
2023/05/06 01:02:18;;;;;;;1.00;0.80;;;;;;;;;;8257422;28;20434;-71
2023/05/06 01:06:26;;;;;;;1.30;0.80;;;;;;;;;;8254652;28;20148;-71
2023/05/06 01:10:32;;;;;;;0.77;0.68;;;;;;;;;;8257399;28;20495;-71
2023/05/06 01:14:38;;;;;;;2.28;0.70;;;;;;;;;;8255952;28;20544;-71
2023/05/06 01:18:39;;;;;;;1.50;0.80;;;;;;;;;;8256682;28;20030;-71
2023/05/06 01:22:39;;;;;;;0.85;0.77;;;;;;;;;;8252179;28;20084;-70
2023/05/06 01:26:41;;;;;;;1.15;0.80;;;;;;;;;;8256441;28;20029;-70
2023/05/06 01:30:47;;;;;;;1.90;0.90;;;;;;;;;;8252845;28;20124;-71
2023/05/06 01:34:47;;;;;;;1.30;0.75;;;;;;;;;;8261803;28;20022;-71
2023/05/06 01:38:58;;;;;;;3.03;0.90;;;;;;;;;;8255601;28;20195;-71
2023/05/06 01:43:01;;;;;;;1.48;0.95;;;;;;;;;;8253539;28;20036;-71
2023/05/06 01:47:01;;;;;;;3.95;0.90;;;;;;;;;;8237509;28;20122;-71
2023/05/06 01:51:02;;;;;;;1.58;1.10;;;;;;;;;;8220782;28;20098;-71
2023/05/06 01:55:03;;;;;;;1.40;1.00;;;;;;;;;;8242611;28;20788;-71
2023/05/06 01:59:03;;;;;;;2.65;1.30;;;;;;;;;;8234697;28;20888;-70
2023/05/06 02:03:03;;;;;;;1.33;1.15;;;;;;;;;;8227278;28;20710;-71
2023/05/06 02:07:03;;;;;;;2.55;1.10;;;;;;;;;;8220462;28;20031;-71
2023/05/06 02:11:03;;;;;;;1.50;1.20;;;;;;;;;;8226594;28;20034;-71
2023/05/06 02:15:04;;;;;;;1.88;1.20;;;;;;;;;;8224460;28;20936;-71
2023/05/06 02:19:05;;;;;;;1.42;1.30;;;;;;;;;;8224157;28;20034;-71
2023/05/06 02:23:05;;;;;;;1.75;1.20;;;;;;;;;;8226845;28;20443;-71
2023/05/06 02:27:05;;;;;;;4.20;1.58;;;;;;;;;;8223187;28;20176;-71
2023/05/06 02:31:05;;;;;;;1.38;1.27;;;;;;;;;;8224466;28;20034;-70
2023/05/06 02:35:06;;;;;;;1.88;1.23;;;;;;;;;;8221282;28;20065;-71
2023/05/06 02:39:06;;;;;;;1.35;1.25;;;;;;;;;;8220032;28;20659;-71
2023/05/06 02:43:06;;;;;;;2.55;1.38;;;;;;;;;;8219499;28;20026;-71
2023/05/06 02:47:06;;;;;;;1.67;1.33;;;;;;;;;;8242953;28;20030;-71
2023/05/06 02:51:07;;;;;;;1.70;1.40;;;;;;;;;;8254730;28;20017;-71
2023/05/06 02:55:07;;;;;;;3.97;1.65;;;;;;;;;;8252262;28;20085;-71
2023/05/06 02:59:07;;;;;;;1.63;1.40;;;;;;;;;;8262704;28;20104;-70
2023/05/06 03:03:07;;;;;;;1.90;1.27;;;;;;;;;;8261888;28;20040;-71
2023/05/06 03:07:08;;;;;;;2.93;1.50;;;;;;;;;;8263182;28;20033;-71
2023/05/06 03:11:08;;;;;;;1.63;1.20;;;;;;;;;;8254896;28;20646;-71
2023/05/06 03:15:08;;;;;;;4.88;1.70;;;;;;;;;;8251101;28;20133;-71
2023/05/06 03:19:09;;;;;;;2.22;1.63;;;;;;;;;;8251336;28;20115;-71
2023/05/06 03:23:09;;;;;;;2.15;1.40;;;;;;;;;;8253306;28;20029;-71
2023/05/06 03:27:09;;;;;;;4.10;1.45;;;;;;;;;;8259818;28;20420;-71
2023/05/06 03:31:10;;;;;;;2.63;1.35;;;;;;;;;;8254763;28;20565;-71
2023/05/06 03:35:10;;;;;;;1.30;1.20;;;;;;;;;;8255076;28;20026;-73
2023/05/06 03:39:10;;;;;;;5.03;1.30;;;;;;;;;;8256683;28;20026;-71
2023/05/06 03:43:10;;;;;;;1.17;1.05;;;;;;;;;;8255796;28;20033;-71
2023/05/06 03:47:11;;;;;;;1.15;1.00;;;;;;;;;;8249194;28;20040;-71
2023/05/06 03:51:11;;;;;;;2.75;1.15;;;;;;;;;;8256058;28;20083;-71
2023/05/06 03:55:11;;;;;;;2.25;1.30;;;;;;;;;;8260461;28;20103;-71
2023/05/06 03:59:11;;;;;;;1.85;0.95;;;;;;;;;;8260749;28;20034;-71
2023/05/06 04:03:11;;;;;;;0.93;0.90;;;;;;;;;;8252421;28;20033;-71
2023/05/06 04:07:12;;;;;;;1.50;0.90;;;;;;;;;;8250394;28;20582;-71
2023/05/06 04:11:12;;;;;;;0.70;0.70;;;;;;;;;;8253148;28;20930;-71
2023/05/06 04:15:12;;;;;;;1.10;0.90;;;;;;;;;;8254935;28;20038;-71
2023/05/06 04:19:12;;;;;;;1.03;0.70;;;;;;;;;;8250091;28;20308;-71
2023/05/06 04:23:13;;;;;;;0.88;0.88;;;;;;;;;;8254524;28;20312;-71
2023/05/06 04:27:13;;;;;;;0.80;0.80;;;;;;;;;;8265039;28;20033;-71
2023/05/06 04:31:14;;;;;;;1.90;0.90;;;;;;;;;;8260224;28;20080;-71
2023/05/06 04:35:15;;;;;;;1.40;0.90;;;;;;;;;;8254509;28;20140;-71
2023/05/06 04:39:15;;;;;;;1.25;0.85;;;;;;;;;;8265044;28;20026;-71
2023/05/06 04:43:15;;;;;;;3.50;0.90;;;;;;;;;;8250575;28;20069;-72
2023/05/06 04:47:16;;;;;;;2.03;1.10;;;;;;;;;;8250512;28;20842;-71
2023/05/06 04:51:16;;;;;;;2.03;1.23;;;;;;;;;;8250767;28;20018;-72
2023/05/06 04:55:17;;;;;;;2.60;1.02;;;;;;;;;;8250073;28;20034;-71
2023/05/06 04:59:17;;;;;;;2.88;1.35;;;;;;;;;;8262831;28;20023;-71
2023/05/06 05:03:17;;;;;;;3.50;1.33;;;;;;;;;;8239474;28;20030;-71
2023/05/06 05:07:17;;;;;;;2.72;1.35;;;;;;;;;;8222965;28;20022;-72
2023/05/06 05:11:17;;;;;;;1.90;1.20;;;;;;;;;;8223221;28;20700;-72
2023/05/06 05:15:19;;;;;;;4.25;1.20;;;;;;;;;;8228416;28;20593;-73
2023/05/06 05:19:20;;;;;;;1.60;1.23;;;;;;;;;;8224077;28;20026;-72
2023/05/06 05:23:20;;;;;;;1.83;1.27;;;;;;;;;;8234112;28;20041;-73
2023/05/06 05:27:20;;;;;;;2.50;1.20;;;;;;;;;;8228583;28;20030;-72
2023/05/06 05:31:20;;;;;;;3.30;1.20;;;;;;;;;;8218322;28;20065;-72
2023/05/06 05:35:20;;;;;;;5.90;1.20;;;;;;;;;;8217705;28;20404;-73
2023/05/06 05:39:21;;;;;;;1.65;1.10;;;;;;;;;;8222131;28;20172;-73
2023/05/06 05:43:22;;;;;;;4.10;1.23;;;;;;;;;;8221313;28;20045;-72
2023/05/06 05:47:22;;;;;;;1.23;0.90;;;;;;;;;;8222911;28;20097;-72
2023/05/06 05:51:22;;;;;;;3.75;1.20;;;;;;;;;;8220992;28;20468;-72
2023/05/06 05:55:23;;;;;;;2.00;1.10;;;;;;;;;;8218016;28;20129;-73
2023/05/06 05:59:23;;;;;;;6.78;1.60;;;;;;;;;;8226877;28;20108;-73
2023/05/06 06:03:23;;;;;;;4.80;2.25;;;;;;;;;;8222604;28;20554;-73
2023/05/06 06:07:24;;;;;;;2.97;1.77;;;;;;;;;;8217298;28;20057;-73
2023/05/06 06:11:25;;;;;;;3.07;1.50;;;;;;;;;;8228831;28;20022;-73
2023/05/06 06:15:25;;;;;;;3.60;1.60;;;;;;;;;;8217813;28;20262;-73
2023/05/06 06:19:26;;;;;;;2.53;1.27;;;;;;;;;;8222342;28;20805;-73
2023/05/06 06:23:26;;;;;;;2.60;1.27;;;;;;;;;;8223341;28;20149;-73
2023/05/06 06:27:26;;;;;;;3.20;1.20;;;;;;;;;;8222237;28;20026;-72
2023/05/06 06:31:28;;;;;;;2.17;1.30;;;;;;;;;;8220883;28;20950;-73
2023/05/06 06:35:28;;;;;;;3.38;1.85;;;;;;;;;;8221493;28;20029;-73
2023/05/06 06:39:28;;;;;;;3.67;1.20;;;;;;;;;;8222570;28;20384;-73
2023/05/06 06:43:28;;;;;;;2.58;1.40;;;;;;;;;;8230103;28;20042;-73
2023/05/06 06:47:28;;;;;;;2.20;1.53;;;;;;;;;;8219401;28;20117;-73
2023/05/06 06:51:28;;;;;;;2.88;2.20;;;;;;;;;;8221398;28;20871;-73
2023/05/06 06:55:29;;;;;;;11.38;4.70;;;;;;;;;;8220859;28;20034;-73
2023/05/06 06:59:29;;;;;;;8.80;5.97;;;;;;;;;;8221534;28;20081;-72
2023/05/06 07:03:29;;;;;;;4.50;2.72;;;;;;;;;;8234571;28;21834;-72
2023/05/06 07:07:30;;;;;;;4.63;2.60;;;;;;;;;;8224922;28;20023;-73
2023/05/06 07:11:30;;;;;;;3.40;2.20;;;;;;;;;;8229182;28;20845;-73
2023/05/06 07:15:30;;;;;;;5.40;2.80;;;;;;;;;;8219306;28;22326;-73
2023/05/06 07:19:30;;;;;;;3.00;2.70;;;;;;;;;;8219516;28;20560;-73
2023/05/06 07:23:30;;;;;;;7.38;4.00;;;;;;;;;;8217500;28;20838;-72
2023/05/06 07:27:30;;;;;;;4.28;3.50;;;;;;;;;;8218889;28;20559;-73
2023/05/06 07:31:31;;;;;;;6.72;4.40;;;;;;;;;;8219541;28;20034;-73
2023/05/06 07:35:31;;;;;;;4.78;3.67;;;;;;;;;;8220167;28;20126;-73
2023/05/06 07:39:32;;;;;;;3.10;2.80;;;;;;;;;;8219242;28;20030;-73
2023/05/06 07:43:32;;;;;;;4.20;3.63;;;;;;;;;;8219141;28;20018;-73
2023/05/06 07:47:33;;;;;;;4.38;3.58;;;;;;;;;;8220359;28;20034;-73
2023/05/06 07:51:33;;;;;;;5.90;3.63;;;;;;;;;;8217890;28;20109;-73
2023/05/06 07:55:36;;;;;;;5.10;3.70;;;;;;;;;;8216486;28;20101;-73
2023/05/06 07:59:36;;;;;;;6.35;3.90;;;;;;;;;;8216619;28;20144;-73
2023/05/06 08:03:36;;;;;;;5.53;3.67;;;;;;;;;;8218585;28;20710;-73
2023/05/06 08:07:38;;;;;;;5.18;2.97;;;;;;;;;;8214667;28;20023;-73
2023/05/06 08:11:38;;;;;;;4.28;2.72;;;;;;;;;;8214462;28;20034;-73
2023/05/06 08:15:38;;;;;;;2.88;2.50;;;;;;;;;;8213412;28;20035;-73
2023/05/06 08:19:38;;;;;;;3.40;2.60;;;;;;;;;;8217901;28;20129;-73
2023/05/06 08:23:38;;;;;;;3.03;2.72;;;;;;;;;;8219796;28;20026;-72
2023/05/06 08:27:39;;;;;;;3.28;2.22;;;;;;;;;;8212671;28;20018;-73
2023/05/06 08:31:39;;;;;;;4.50;2.45;;;;;;;;;;8216775;28;20031;-73
2023/05/06 08:35:39;;;;;;;5.83;3.27;;;;;;;;;;8224938;28;20034;-73
2023/05/06 08:39:40;;;;;;;3.57;3.23;;;;;;;;;;8219306;28;20038;-73
2023/05/06 08:43:41;;;;;;;5.70;3.95;;;;;;;;;;8226127;28;20109;-73
2023/05/06 08:47:41;;;;;;;5.82;4.60;;;;;;;;;;8222059;28;20037;-73
2023/05/06 08:51:43;;;;;;;4.60;3.47;;;;;;;;;;8224723;28;20038;-73
2023/05/06 08:55:44;;;;;;;6.82;4.43;;;;;;;;;;8241877;28;20026;-73
2023/05/06 08:59:44;;;;;;;7.32;4.97;;;;;;;;;;8218560;28;20161;-73
2023/05/06 09:03:45;;;;;;;5.95;4.28;;;;;;;;;;8218845;28;20144;-73
2023/05/06 09:07:45;;;;;;;5.35;4.30;;;;;;;;;;8220603;28;20027;-73
2023/05/06 09:11:52;;;;;;;6.43;4.10;;;;;;;;;;8230486;28;20427;-73
2023/05/06 09:15:54;;;;;;;5.63;3.70;;;;;;;;;;8229014;28;20484;-73
2023/05/06 09:19:58;;;;;;;3.45;3.03;;;;;;;;;;8221838;28;20058;-73
2023/05/06 09:23:59;;;;;;;3.58;3.08;;;;;;;;;;8216427;28;20022;-73
2023/05/06 09:28:03;;;;;;;3.83;2.97;;;;;;;;;;8217440;28;20109;-73
2023/05/06 09:32:06;;;;;;;4.45;2.88;;;;;;;;;;8237892;28;20034;-73
2023/05/06 09:36:06;;;;;;;;;;;;;;;;;;8218645;28;20045;-73
2023/05/06 09:40:08;;;;;;;4.45;3.08;;;;;;;;;;8225986;28;20379;-73
2023/05/06 09:44:08;;;;;;;2.47;2.28;;;;;;;;;;8222377;28;20026;-73
2023/05/06 09:48:08;;;;;;;2.75;2.00;;;;;;;;;;8216271;28;20745;-73
2023/05/06 09:52:10;;;;;;;3.53;2.72;;;;;;;;;;8223459;28;20026;-73
2023/05/06 09:56:11;;;;;;;3.55;2.53;;;;;;;;;;8230281;28;20035;-73
2023/05/06 10:00:12;;;;;;;4.18;2.30;;;;;;;;;;8225902;28;20742;-73
2023/05/06 10:04:12;;;;;;;2.13;1.90;;;;;;;;;;8220150;28;20140;-73
2023/05/06 10:08:17;;;;;;;2.08;1.88;;;;;;;;;;8212912;28;20018;-73
2023/05/06 10:12:17;;;;;;;2.42;2.00;;;;;;;;;;8226967;28;20027;-73
2023/05/06 10:16:18;;;;;;;2.50;1.80;;;;;;;;;;8217854;28;20081;-73
2023/05/06 10:20:19;;;;;;;4.57;2.00;;;;;;;;;;8217155;28;20085;-73
2023/05/06 10:24:22;;;;;;;3.10;1.92;;;;;;;;;;8220032;28;20526;-72
2023/05/06 10:28:22;;;;;;;4.13;1.60;;;;;;;;;;8240256;28;20019;-73
2023/05/06 10:32:25;;;;;;;2.42;1.65;;;;;;;;;;8217917;28;20042;-73
2023/05/06 10:36:28;;;;;;;4.18;1.58;;;;;;;;;;8226006;28;20030;-73
2023/05/06 10:40:28;;;;;;;1.60;1.50;;;;;;;;;;8214393;28;20578;-73
2023/05/06 10:44:47;;;;;;;2.13;1.60;;;;;;;;;;8217046;28;20229;-73
2023/05/06 10:49:12;;;;;;;1.67;1.40;;;;;;;;;;8214324;28;20386;-73
2023/05/06 10:53:12;;;;;;;2.22;1.60;;;;;;;;;;8216974;28;20026;-73
2023/05/06 10:57:13;;;;;;;2.73;1.80;;;;;;;;;;8218986;28;20149;-73
2023/05/06 11:01:14;;;;;;;2.77;1.83;;;;;;;;;;8213467;28;20039;-73
2023/05/06 11:05:14;;;;;;;1.88;1.65;;;;;;;;;;8217447;28;20034;-73
2023/05/06 11:09:16;;;;;;;3.45;1.90;;;;;;;;;;8220271;28;20565;-72
2023/05/06 11:13:20;;;;;;;3.03;1.60;;;;;;;;;;8218932;28;20467;-73
2023/05/06 11:17:30;;;;;;;3.25;1.52;;;;;;;;;;8220108;28;20093;-73
2023/05/06 11:21:31;;;;;;;2.38;1.67;;;;;;;;;;8214236;28;20077;-72
2023/05/06 11:25:37;;;;;;;2.25;1.60;;;;;;;;;;8219804;28;20023;-73
2023/05/06 11:29:38;;;;;;;3.00;1.67;;;;;;;;;;8213284;28;20109;-74
2023/05/06 11:33:44;;;;;;;2.75;1.60;;;;;;;;;;8214344;28;20100;-72
2023/05/06 11:37:44;;;;;;;1.75;1.63;;;;;;;;;;8214038;28;20030;-73
2023/05/06 11:41:44;;;;;;;2.25;1.85;;;;;;;;;;8215075;28;20060;-73
2023/05/06 11:45:45;;;;;;;1.80;1.65;;;;;;;;;;8217073;28;20484;-73
2023/05/06 11:49:46;;;;;;;3.47;1.67;;;;;;;;;;8213476;28;20128;-72
2023/05/06 11:53:46;;;;;;;3.15;1.58;;;;;;;;;;8216120;28;20796;-72
2023/05/06 11:57:46;;;;;;;3.03;1.42;;;;;;;;;;8217908;28;20531;-72
2023/05/06 12:01:47;;;;;;;3.33;1.50;;;;;;;;;;8214416;28;20054;-73
2023/05/06 12:05:47;;;;;;;2.20;1.65;;;;;;;;;;8226101;28;20096;-73
2023/05/06 12:09:48;;;;;;;2.28;1.50;;;;;;;;;;8233403;28;20022;-73
2023/05/06 12:13:48;;;;;;;2.03;1.55;;;;;;;;;;8229737;28;20490;-73
2023/05/06 12:17:49;;;;;;;2.65;1.35;;;;;;;;;;8223310;28;20786;-73
2023/05/06 12:21:49;;;;;;;4.97;1.50;;;;;;;;;;8224256;28;20037;-72
2023/05/06 12:26:00;;;;;;;1.60;1.50;;;;;;;;;;8227053;28;20285;-73
2023/05/06 12:30:03;;;;;;;2.00;1.38;;;;;;;;;;8232303;28;20030;-73
2023/05/06 12:34:03;;;;;;;1.63;1.53;;;;;;;;;;8233148;28;20046;-72
2023/05/06 12:38:08;;;;;;;2.25;1.30;;;;;;;;;;8225855;28;20358;-73
2023/05/06 12:42:08;;;;;;;3.03;1.55;;;;;;;;;;8237152;28;20448;-73
2023/05/06 12:46:08;;;;;;;2.50;1.50;;;;;;;;;;8235546;28;20073;-73
2023/05/06 12:50:09;;;;;;;3.03;1.30;;;;;;;;;;8229036;28;20664;-73
2023/05/06 12:54:28;;;;;;;1.70;1.50;;;;;;;;;;8236731;28;20034;-73
2023/05/06 12:58:28;;;;;;;2.30;1.40;;;;;;;;;;8250470;28;20028;-73
2023/05/06 13:02:29;;;;;;;1.67;1.40;;;;;;;;;;8228071;28;20081;-73
2023/05/06 13:06:32;;;;;;;3.80;1.60;;;;;;;;;;8228891;28;20037;-73
2023/05/06 13:10:32;;;;;;;;;;;;;;;;;;8231918;28;20018;-73
2023/05/06 13:14:32;;;;;;;1.52;1.40;;;;;;;;;;8227654;28;19976;-73
2023/05/06 13:18:33;;;;;;;3.80;2.50;;;;;;;;;;8229006;28;20115;-73
2023/05/06 13:22:33;;;;;;;3.08;1.33;;;;;;;;;;8223725;28;20033;-73
2023/05/06 13:26:33;;;;;;;2.83;1.40;;;;;;;;;;8222078;28;20621;-73
2023/05/06 13:30:33;;;;;;;2.67;1.52;;;;;;;;;;8219619;28;20045;-73
2023/05/06 13:34:34;;;;;;;1.60;1.40;;;;;;;;;;8216381;28;20030;-73
2023/05/06 13:38:34;;;;;;;2.03;1.63;;;;;;;;;;8223422;28;20925;-72
2023/05/06 13:42:35;;;;;;;2.22;1.40;;;;;;;;;;8228030;28;20027;-73
2023/05/06 13:46:35;;;;;;;1.55;1.30;;;;;;;;;;8227340;28;20053;-73
2023/05/06 13:50:36;;;;;;;1.33;1.23;;;;;;;;;;8221771;28;20037;-73
2023/05/06 13:54:36;;;;;;;1.30;1.20;;;;;;;;;;8215680;28;20788;-73
2023/05/06 13:58:36;;;;;;;1.60;1.38;;;;;;;;;;8217705;28;20028;-73
2023/05/06 14:02:36;;;;;;;1.48;1.15;;;;;;;;;;8219580;28;20027;-73
2023/05/06 14:06:37;;;;;;;1.40;1.30;;;;;;;;;;8216777;28;20108;-73
2023/05/06 14:10:37;;;;;;;1.83;1.40;;;;;;;;;;8214678;28;20088;-73
2023/05/06 14:14:38;;;;;;;2.65;1.20;;;;;;;;;;8210182;28;20121;-73
2023/05/06 14:18:38;;;;;;;1.98;1.33;;;;;;;;;;8212383;28;20030;-73
2023/05/06 14:22:39;;;;;;;1.67;1.30;;;;;;;;;;8216135;28;20106;-73
2023/05/06 14:26:40;;;;;;;1.48;1.20;;;;;;;;;;8214143;28;20037;-73
2023/05/06 14:30:40;;;;;;;2.63;1.30;;;;;;;;;;8218023;28;20030;-73
2023/05/06 14:34:40;;;;;;;1.30;1.20;;;;;;;;;;8216350;28;20034;-73
2023/05/06 14:38:40;;;;;;;2.67;1.23;;;;;;;;;;8218636;28;20033;-73
2023/05/06 14:42:41;;;;;;;2.25;1.35;;;;;;;;;;8214723;28;20117;-73
2023/05/06 14:46:41;;;;;;;1.40;1.30;;;;;;;;;;8218592;28;20455;-73
2023/05/06 14:50:41;;;;;;;2.78;1.30;;;;;;;;;;8216744;28;20069;-73
2023/05/06 14:54:41;;;;;;;2.90;1.40;;;;;;;;;;8215648;28;20018;-73
2023/05/06 14:58:41;;;;;;;1.63;1.30;;;;;;;;;;8215822;28;20026;-72
2023/05/06 15:02:42;;;;;;;1.27;1.17;;;;;;;;;;8217464;28;20045;-73
2023/05/06 15:06:42;;;;;;;1.90;1.30;;;;;;;;;;8230161;28;20034;-73
2023/05/06 15:10:42;;;;;;;2.30;1.33;;;;;;;;;;8215967;28;20026;-73
2023/05/06 15:14:42;;;;;;;2.22;1.30;;;;;;;;;;8212546;28;20026;-73
2023/05/06 15:18:43;;;;;;;2.77;1.30;;;;;;;;;;8211280;28;20885;-73
2023/05/06 15:22:44;;;;;;;2.53;1.40;;;;;;;;;;8213448;28;20305;-73
2023/05/06 15:26:44;;;;;;;1.92;1.30;;;;;;;;;;8212372;28;20057;-73
2023/05/06 15:30:44;;;;;;;1.20;1.10;;;;;;;;;;8213617;28;20045;-73
2023/05/06 15:34:45;;;;;;;2.67;1.20;;;;;;;;;;8216869;28;20042;-73
2023/05/06 15:38:51;;;;;;;2.70;1.20;;;;;;;;;;8212756;28;20069;-72
2023/05/06 15:42:51;;;;;;;1.70;1.10;;;;;;;;;;8211054;28;20972;-73
2023/05/06 15:46:51;;;;;;;1.42;1.27;;;;;;;;;;8212403;28;20038;-73
2023/05/06 15:50:52;;;;;;;1.20;1.10;;;;;;;;;;8211433;28;20022;-72
2023/05/06 15:54:52;;;;;;;1.83;1.20;;;;;;;;;;8214375;28;20030;-72
2023/05/06 15:58:54;;;;;;;2.00;1.10;;;;;;;;;;8214054;28;20030;-73
2023/05/06 16:02:54;;;;;;;1.77;1.17;;;;;;;;;;8203434;28;20054;-73
2023/05/06 16:06:55;;;;;;;2.25;1.20;;;;;;;;;;8213617;28;20026;-72
2023/05/06 16:10:55;;;;;;;2.78;1.40;;;;;;;;;;8217889;28;20034;-73
2023/05/06 16:14:55;;;;;;;1.30;1.00;;;;;;;;;;8217060;28;20053;-73
2023/05/06 16:18:55;;;;;;;1.30;1.20;;;;;;;;;;8213794;28;20042;-73
2023/05/06 16:22:55;;;;;;;1.90;1.10;;;;;;;;;;8216652;28;20022;-73
2023/05/06 16:26:55;;;;;;;1.85;1.20;;;;;;;;;;8210941;28;20034;-73
2023/05/06 16:30:56;;;;;;;1.25;1.13;;;;;;;;;;8208235;28;20044;-73
2023/05/06 16:34:58;;;;;;;2.65;1.00;;;;;;;;;;8213552;28;20053;-73
2023/05/06 16:38:58;;;;;;;1.30;1.20;;;;;;;;;;8215433;28;20040;-73
2023/05/06 16:42:58;;;;;;;1.50;1.00;;;;;;;;;;8211744;28;20062;-73
2023/05/06 16:46:58;;;;;;;1.25;1.00;;;;;;;;;;8210563;28;21243;-73
2023/05/06 16:50:59;;;;;;;1.20;1.00;;;;;;;;;;8215262;28;20061;-73
2023/05/06 16:54:59;;;;;;;1.02;1.00;;;;;;;;;;8216993;28;20144;-73
2023/05/06 16:58:59;;;;;;;1.48;1.10;;;;;;;;;;8218839;28;20030;-73
2023/05/06 17:02:59;;;;;;;1.67;1.00;;;;;;;;;;8218811;28;20043;-73
2023/05/06 17:07:00;;;;;;;0.93;0.93;;;;;;;;;;8220212;28;20532;-73
2023/05/06 17:11:00;;;;;;;1.20;1.03;;;;;;;;;;8221194;28;20041;-73
2023/05/06 17:15:01;;;;;;;1.80;1.10;;;;;;;;;;8222161;28;20026;-73
2023/05/06 17:19:01;;;;;;;1.30;1.15;;;;;;;;;;8215041;28;20069;-72
2023/05/06 17:23:01;;;;;;;1.60;1.00;;;;;;;;;;8219110;28;20061;-73
2023/05/06 17:27:02;;;;;;;1.10;1.00;;;;;;;;;;8218198;28;20036;-73
2023/05/06 17:31:02;;;;;;;1.17;1.00;;;;;;;;;;8219387;28;20081;-73
2023/05/06 17:35:02;;;;;;;1.25;1.00;;;;;;;;;;8220693;28;20061;-73
2023/05/06 17:39:03;;;;;;;1.50;0.90;;;;;;;;;;8221014;28;21036;-72
2023/05/06 17:43:03;;;;;;;1.40;1.05;;;;;;;;;;8221600;28;20030;-73
2023/05/06 17:47:04;;;;;;;1.25;0.95;;;;;;;;;;8219078;28;20046;-73
2023/05/06 17:51:04;;;;;;;3.67;1.10;;;;;;;;;;8219746;28;20086;-73
2023/05/06 17:55:04;;;;;;;0.93;0.93;;;;;;;;;;8218517;28;20030;-73
2023/05/06 17:59:04;;;;;;;1.95;0.95;;;;;;;;;;8215810;28;20133;-72
2023/05/06 18:03:05;;;;;;;1.35;0.90;;;;;;;;;;8218208;28;20830;-72
2023/05/06 18:07:05;;;;;;;1.25;1.08;;;;;;;;;;8218735;28;20027;-73
2023/05/06 18:11:05;;;;;;;1.85;1.20;;;;;;;;;;8224043;28;20047;-73
2023/05/06 18:15:05;;;;;;;3.42;0.90;;;;;;;;;;8220129;28;20096;-73
2023/05/06 18:19:06;;;;;;;0.98;0.93;;;;;;;;;;8215073;28;20882;-73
2023/05/06 18:23:06;;;;;;;0.93;0.93;;;;;;;;;;8220644;28;20042;-73
2023/05/06 18:27:06;;;;;;;1.55;0.90;;;;;;;;;;8220415;28;20080;-73
2023/05/06 18:31:06;;;;;;;1.10;1.00;;;;;;;;;;8219703;28;20038;-72
2023/05/06 18:35:09;;;;;;;1.10;0.93;;;;;;;;;;8215259;28;20034;-73
2023/05/06 18:39:09;;;;;;;2.90;1.00;;;;;;;;;;8218752;28;20037;-73
2023/05/06 18:43:10;;;;;;;1.45;1.10;;;;;;;;;;8219655;28;20917;-72
2023/05/06 18:47:10;;;;;;;1.50;0.90;;;;;;;;;;8209471;28;20046;-73
2023/05/06 18:51:11;;;;;;;1.25;1.00;;;;;;;;;;8217738;28;20073;-73
2023/05/06 18:55:11;;;;;;;2.17;1.00;;;;;;;;;;8214901;28;20073;-73
2023/05/06 18:59:11;;;;;;;1.20;1.10;;;;;;;;;;8219174;28;20677;-74
2023/05/06 19:03:12;;;;;;;1.10;1.10;;;;;;;;;;8217209;28;20145;-74
2023/05/06 19:07:12;;;;;;;1.20;1.00;;;;;;;;;;8216562;28;21290;-74
2023/05/06 19:11:14;;;;;;;1.85;1.10;;;;;;;;;;8215435;28;20057;-74
2023/05/06 19:15:14;;;;;;;2.67;1.42;;;;;;;;;;8216145;28;20029;-74
2023/05/06 19:19:14;;;;;;;1.90;1.25;;;;;;;;;;8211336;28;20798;-74
2023/05/06 19:23:15;;;;;;;1.00;0.90;;;;;;;;;;8219407;28;20229;-74
2023/05/06 19:27:15;;;;;;;2.30;1.27;;;;;;;;;;8218019;28;20034;-74
2023/05/06 19:31:15;;;;;;;1.33;1.23;;;;;;;;;;8212947;28;20073;-74
2023/05/06 19:35:16;;;;;;;1.33;1.20;;;;;;;;;;8213891;28;20030;-74
2023/05/06 19:39:16;;;;;;;2.10;1.20;;;;;;;;;;8213497;28;20478;-73
2023/05/06 19:43:16;;;;;;;5.13;1.30;;;;;;;;;;8215410;28;20042;-71
2023/05/06 19:47:17;;;;;;;2.13;1.40;;;;;;;;;;8216490;28;20279;-71
2023/05/06 19:51:17;;;;;;;1.67;1.17;;;;;;;;;;8216119;28;20058;-71
2023/05/06 19:55:17;;;;;;;2.17;1.50;;;;;;;;;;8232094;28;20034;-71
2023/05/06 19:59:18;;;;;;;1.30;1.20;;;;;;;;;;8217240;28;20069;-71
2023/05/06 20:03:18;;;;;;;2.45;1.27;;;;;;;;;;8210948;28;20613;-71
2023/05/06 20:07:18;;;;;;;1.30;1.17;;;;;;;;;;8214895;28;20180;-71
2023/05/06 20:11:18;;;;;;;1.20;1.00;;;;;;;;;;8213340;28;20034;-71
2023/05/06 20:15:18;;;;;;;1.92;1.58;;;;;;;;;;8211924;28;20022;-71
2023/05/06 20:19:20;;;;;;;1.58;1.48;;;;;;;;;;8209601;28;20033;-71
2023/05/06 20:23:20;;;;;;;1.67;1.38;;;;;;;;;;8216021;28;20085;-71
2023/05/06 20:27:21;;;;;;;1.48;1.38;;;;;;;;;;8215275;28;20035;-71
2023/05/06 20:31:21;;;;;;;1.13;1.03;;;;;;;;;;8219934;28;20065;-71
2023/05/06 20:35:21;;;;;;;1.30;1.20;;;;;;;;;;8217259;28;20292;-71
2023/05/06 20:39:22;;;;;;;3.00;1.50;;;;;;;;;;8218358;28;20121;-71
2023/05/06 20:43:22;;;;;;;1.63;1.40;;;;;;;;;;8221208;28;20273;-71
2023/05/06 20:47:23;;;;;;;3.30;1.40;;;;;;;;;;8233995;28;20053;-71
2023/05/06 20:51:23;;;;;;;2.03;1.20;;;;;;;;;;8225721;28;20285;-71
2023/05/06 20:55:24;;;;;;;2.45;1.40;;;;;;;;;;8225070;28;20032;-71
2023/05/06 20:59:27;;;;;;;4.07;1.25;;;;;;;;;;8219949;28;20112;-71
2023/05/06 21:03:29;;;;;;;1.75;1.30;;;;;;;;;;8218560;28;20048;-71
2023/05/06 21:07:29;;;;;;;1.95;1.38;;;;;;;;;;8217569;28;20985;-71
2023/05/06 21:11:29;;;;;;;2.03;1.20;;;;;;;;;;8225093;28;20108;-72
2023/05/06 21:15:38;;;;;;;2.67;1.35;;;;;;;;;;8243369;28;20072;-72
2023/05/06 21:19:38;;;;;;;1.20;1.10;;;;;;;;;;8241910;28;20018;-72
2023/05/06 21:23:38;;;;;;;1.42;1.33;;;;;;;;;;8244901;28;20029;-72
2023/05/06 21:27:39;;;;;;;1.30;1.13;;;;;;;;;;8243199;28;20034;-73
2023/05/06 21:31:39;;;;;;;1.30;1.20;;;;;;;;;;8246503;28;20158;-72
2023/05/06 21:35:41;;;;;;;1.85;1.20;;;;;;;;;;8247494;28;20396;-73
2023/05/06 21:39:41;;;;;;;1.27;1.17;;;;;;;;;;8244886;28;20760;-72
2023/05/06 21:43:42;;;;;;;1.65;1.20;;;;;;;;;;8251089;28;20093;-72
2023/05/06 21:47:42;;;;;;;1.20;1.10;;;;;;;;;;8248013;28;20045;-73
2023/05/06 21:51:43;;;;;;;1.52;1.30;;;;;;;;;;8249511;28;20038;-72
2023/05/06 21:55:43;;;;;;;1.70;1.10;;;;;;;;;;8254551;28;20052;-72
2023/05/06 21:59:43;;;;;;;1.35;1.20;;;;;;;;;;8248179;28;20270;-72
2023/05/06 22:03:44;;;;;;;1.73;1.30;;;;;;;;;;8254575;28;20038;-73
2023/05/06 22:07:44;;;;;;;2.92;1.48;;;;;;;;;;8249780;28;20010;-72
2023/05/06 22:11:45;;;;;;;1.17;1.08;;;;;;;;;;8249592;28;20034;-72
2023/05/06 22:15:45;;;;;;;1.30;1.20;;;;;;;;;;8248005;28;20037;-72
2023/05/06 22:19:45;;;;;;;1.55;1.45;;;;;;;;;;8245510;28;20030;-72
2023/05/06 22:23:46;;;;;;;3.13;1.40;;;;;;;;;;8235251;28;20681;-73
2023/05/06 22:27:46;;;;;;;2.20;1.30;;;;;;;;;;8232887;28;20030;-73
2023/05/06 22:31:46;;;;;;;1.98;1.30;;;;;;;;;;8231420;28;20038;-73
2023/05/06 22:35:46;;;;;;;4.70;1.45;;;;;;;;;;8233201;28;20056;-73
2023/05/06 22:39:46;;;;;;;3.60;1.15;;;;;;;;;;8235420;28;20034;-73
2023/05/06 22:43:47;;;;;;;1.52;1.20;;;;;;;;;;8233478;28;20108;-72
2023/05/06 22:47:47;;;;;;;4.28;1.38;;;;;;;;;;8233275;28;20038;-73
2023/05/06 22:51:48;;;;;;;2.95;1.30;;;;;;;;;;8241093;28;20094;-72
2023/05/06 22:55:48;;;;;;;2.15;1.60;;;;;;;;;;8241796;28;20064;-73
2023/05/06 22:59:49;;;;;;;2.47;1.33;;;;;;;;;;8240696;28;20026;-72
2023/05/06 23:03:49;;;;;;;1.67;1.10;;;;;;;;;;8242487;28;20289;-72
2023/05/06 23:07:49;;;;;;;1.48;1.10;;;;;;;;;;8247681;28;20022;-72
2023/05/06 23:11:49;;;;;;;1.38;1.27;;;;;;;;;;8246402;28;20026;-72
2023/05/06 23:15:49;;;;;;;2.53;1.40;;;;;;;;;;8243100;28;20039;-72
2023/05/06 23:19:50;;;;;;;1.37;1.20;;;;;;;;;;8245847;28;20018;-72
2023/05/06 23:23:50;;;;;;;2.45;1.30;;;;;;;;;;8246558;28;20563;-72
2023/05/06 23:27:50;;;;;;;2.90;1.33;;;;;;;;;;8247679;28;20022;-72
2023/05/06 23:31:50;;;;;;;2.33;1.45;;;;;;;;;;8239876;28;20062;-72
2023/05/06 23:35:51;;;;;;;2.53;1.60;;;;;;;;;;8250639;28;20023;-72
2023/05/06 23:39:51;;;;;;;3.22;1.40;;;;;;;;;;8249713;28;20742;-72
2023/05/06 23:43:52;;;;;;;2.10;1.30;;;;;;;;;;8249493;28;20108;-73
2023/05/06 23:47:52;;;;;;;2.30;1.27;;;;;;;;;;8246164;28;20150;-73
2023/05/06 23:51:52;;;;;;;1.83;1.60;;;;;;;;;;8256410;28;20025;-72
2023/05/06 23:55:52;;;;;;;2.97;1.52;;;;;;;;;;8260618;28;20033;-72
2023/05/06 23:59:53;;;;;;;1.27;1.10;;;;;;;;;;8259377;28;20045;-72
